sensor_id;sensor_type;location;lat;lon;timestamp;P1;durP1;ratioP1;P2;durP2;ratioP2
11749;SDS011;5932;42.656;23.236;2022-08-01T00:01:34;2.22;;;2.03;;
11749;SDS011;5932;42.656;23.236;2022-08-01T00:04:02;3.38;;;1.98;;
11749;SDS011;5932;42.656;23.236;2022-08-01T00:06:29;3.45;;;1.98;;
11749;SDS011;5932;42.656;23.236;2022-08-01T00:08:56;2.20;;;2.00;;
11749;SDS011;5932;42.656;23.236;2022-08-01T00:11:23;3.30;;;2.38;;
11749;SDS011;5932;42.656;23.236;2022-08-01T00:13:50;2.58;;;1.90;;
11749;SDS011;5932;42.656;23.236;2022-08-01T00:16:16;2.40;;;2.20;;
11749;SDS011;5932;42.656;23.236;2022-08-01T00:18:45;5.93;;;2.20;;
11749;SDS011;5932;42.656;23.236;2022-08-01T00:21:11;3.28;;;2.30;;
11749;SDS011;5932;42.656;23.236;2022-08-01T00:23:38;2.35;;;2.00;;
11749;SDS011;5932;42.656;23.236;2022-08-01T00:26:05;3.53;;;2.22;;
11749;SDS011;5932;42.656;23.236;2022-08-01T00:28:32;2.30;;;2.10;;
11749;SDS011;5932;42.656;23.236;2022-08-01T00:30:58;2.58;;;2.38;;
11749;SDS011;5932;42.656;23.236;2022-08-01T00:33:25;2.55;;;2.30;;
11749;SDS011;5932;42.656;23.236;2022-08-01T00:35:54;2.58;;;2.38;;
11749;SDS011;5932;42.656;23.236;2022-08-01T00:38:21;2.42;;;2.22;;
11749;SDS011;5932;42.656;23.236;2022-08-01T00:40:48;3.70;;;2.28;;
11749;SDS011;5932;42.656;23.236;2022-08-01T00:43:14;2.40;;;2.20;;
11749;SDS011;5932;42.656;23.236;2022-08-01T00:45:41;2.22;;;2.03;;
11749;SDS011;5932;42.656;23.236;2022-08-01T00:48:08;2.85;;;2.30;;
11749;SDS011;5932;42.656;23.236;2022-08-01T00:50:35;2.70;;;2.05;;
11749;SDS011;5932;42.656;23.236;2022-08-01T00:53:03;3.88;;;2.00;;
11749;SDS011;5932;42.656;23.236;2022-08-01T00:55:31;2.17;;;1.98;;
11749;SDS011;5932;42.656;23.236;2022-08-01T00:57:58;4.43;;;2.00;;
11749;SDS011;5932;42.656;23.236;2022-08-01T01:00:25;2.00;;;1.83;;
11749;SDS011;5932;42.656;23.236;2022-08-01T01:02:52;2.30;;;1.83;;
11749;SDS011;5932;42.656;23.236;2022-08-01T01:05:19;2.10;;;1.90;;
11749;SDS011;5932;42.656;23.236;2022-08-01T01:07:48;3.25;;;1.80;;
11749;SDS011;5932;42.656;23.236;2022-08-01T01:10:22;2.63;;;1.60;;
11749;SDS011;5932;42.656;23.236;2022-08-01T01:12:55;1.88;;;1.63;;
11749;SDS011;5932;42.656;23.236;2022-08-01T01:15:28;3.22;;;1.75;;
11749;SDS011;5932;42.656;23.236;2022-08-01T01:18:02;1.73;;;1.63;;
11749;SDS011;5932;42.656;23.236;2022-08-01T01:20:33;3.80;;;1.60;;
11749;SDS011;5932;42.656;23.236;2022-08-01T01:23:20;1.88;;;1.50;;
11749;SDS011;5932;42.656;23.236;2022-08-01T01:26:09;4.07;;;1.63;;
11749;SDS011;5932;42.656;23.236;2022-08-01T01:29:07;2.47;;;1.77;;
11749;SDS011;5932;42.656;23.236;2022-08-01T01:31:40;1.90;;;1.60;;
11749;SDS011;5932;42.656;23.236;2022-08-01T01:34:11;2.25;;;1.50;;
11749;SDS011;5932;42.656;23.236;2022-08-01T01:36:39;1.63;;;1.52;;
11749;SDS011;5932;42.656;23.236;2022-08-01T01:39:08;1.70;;;1.60;;
11749;SDS011;5932;42.656;23.236;2022-08-01T01:41:35;2.88;;;1.60;;
11749;SDS011;5932;42.656;23.236;2022-08-01T01:44:03;1.80;;;1.58;;
11749;SDS011;5932;42.656;23.236;2022-08-01T01:46:32;2.25;;;1.50;;
11749;SDS011;5932;42.656;23.236;2022-08-01T01:49:02;3.08;;;1.50;;
11749;SDS011;5932;42.656;23.236;2022-08-01T01:51:29;2.35;;;1.60;;
11749;SDS011;5932;42.656;23.236;2022-08-01T01:53:57;3.10;;;1.65;;
11749;SDS011;5932;42.656;23.236;2022-08-01T01:56:25;1.48;;;1.38;;
11749;SDS011;5932;42.656;23.236;2022-08-01T01:58:56;2.63;;;1.42;;
11749;SDS011;5932;42.656;23.236;2022-08-01T02:01:26;2.05;;;1.50;;
11749;SDS011;5932;42.656;23.236;2022-08-01T02:03:58;1.80;;;1.50;;
11749;SDS011;5932;42.656;23.236;2022-08-01T02:06:28;1.65;;;1.55;;
11749;SDS011;5932;42.656;23.236;2022-08-01T02:08:56;2.88;;;1.52;;
11749;SDS011;5932;42.656;23.236;2022-08-01T02:11:25;4.82;;;1.75;;
11749;SDS011;5932;42.656;23.236;2022-08-01T02:13:53;2.95;;;1.45;;
11749;SDS011;5932;42.656;23.236;2022-08-01T02:16:23;2.38;;;1.48;;
11749;SDS011;5932;42.656;23.236;2022-08-01T02:18:52;2.67;;;1.35;;
11749;SDS011;5932;42.656;23.236;2022-08-01T02:21:23;1.67;;;1.40;;
11749;SDS011;5932;42.656;23.236;2022-08-01T02:23:53;2.17;;;1.50;;
11749;SDS011;5932;42.656;23.236;2022-08-01T02:26:25;2.42;;;1.42;;
11749;SDS011;5932;42.656;23.236;2022-08-01T02:28:54;1.70;;;1.60;;
11749;SDS011;5932;42.656;23.236;2022-08-01T02:31:25;4.50;;;1.60;;
11749;SDS011;5932;42.656;23.236;2022-08-01T02:33:58;2.70;;;1.38;;
11749;SDS011;5932;42.656;23.236;2022-08-01T02:36:30;3.85;;;1.60;;
11749;SDS011;5932;42.656;23.236;2022-08-01T02:39:00;1.83;;;1.27;;
11749;SDS011;5932;42.656;23.236;2022-08-01T02:41:33;1.42;;;1.30;;
11749;SDS011;5932;42.656;23.236;2022-08-01T02:44:03;1.98;;;1.20;;
11749;SDS011;5932;42.656;23.236;2022-08-01T02:46:34;1.77;;;1.42;;
11749;SDS011;5932;42.656;23.236;2022-08-01T02:49:04;3.97;;;1.40;;
11749;SDS011;5932;42.656;23.236;2022-08-01T02:51:34;1.60;;;1.50;;
11749;SDS011;5932;42.656;23.236;2022-08-01T02:54:04;1.35;;;1.25;;
11749;SDS011;5932;42.656;23.236;2022-08-01T02:56:33;1.63;;;1.50;;
11749;SDS011;5932;42.656;23.236;2022-08-01T02:59:04;2.03;;;1.20;;
11749;SDS011;5932;42.656;23.236;2022-08-01T03:01:34;1.48;;;1.38;;
11749;SDS011;5932;42.656;23.236;2022-08-01T03:04:02;3.17;;;1.38;;
11749;SDS011;5932;42.656;23.236;2022-08-01T03:06:31;1.80;;;1.50;;
11749;SDS011;5932;42.656;23.236;2022-08-01T03:09:00;8.18;;;1.50;;
11749;SDS011;5932;42.656;23.236;2022-08-01T03:11:29;1.92;;;1.30;;
11749;SDS011;5932;42.656;23.236;2022-08-01T03:13:56;1.40;;;1.30;;
11749;SDS011;5932;42.656;23.236;2022-08-01T03:16:27;1.73;;;1.30;;
11749;SDS011;5932;42.656;23.236;2022-08-01T03:18:56;2.20;;;1.30;;
11749;SDS011;5932;42.656;23.236;2022-08-01T03:21:24;2.63;;;1.40;;
11749;SDS011;5932;42.656;23.236;2022-08-01T03:23:54;2.45;;;1.30;;
11749;SDS011;5932;42.656;23.236;2022-08-01T03:26:26;3.28;;;1.30;;
11749;SDS011;5932;42.656;23.236;2022-08-01T03:28:55;1.30;;;1.20;;
11749;SDS011;5932;42.656;23.236;2022-08-01T03:31:23;1.48;;;1.30;;
11749;SDS011;5932;42.656;23.236;2022-08-01T03:33:52;1.90;;;1.20;;
11749;SDS011;5932;42.656;23.236;2022-08-01T03:36:20;1.35;;;1.25;;
11749;SDS011;5932;42.656;23.236;2022-08-01T03:38:49;2.53;;;1.40;;
11749;SDS011;5932;42.656;23.236;2022-08-01T03:41:19;1.88;;;1.40;;
11749;SDS011;5932;42.656;23.236;2022-08-01T03:43:50;1.85;;;1.60;;
11749;SDS011;5932;42.656;23.236;2022-08-01T03:46:22;1.52;;;1.42;;
11749;SDS011;5932;42.656;23.236;2022-08-01T03:48:55;1.98;;;1.40;;
11749;SDS011;5932;42.656;23.236;2022-08-01T03:51:26;2.03;;;1.42;;
11749;SDS011;5932;42.656;23.236;2022-08-01T03:53:54;3.08;;;1.40;;
11749;SDS011;5932;42.656;23.236;2022-08-01T03:56:22;2.47;;;1.60;;
11749;SDS011;5932;42.656;23.236;2022-08-01T03:58:51;1.50;;;1.40;;
11749;SDS011;5932;42.656;23.236;2022-08-01T04:01:18;2.42;;;1.42;;
11749;SDS011;5932;42.656;23.236;2022-08-01T04:03:45;1.48;;;1.20;;
11749;SDS011;5932;42.656;23.236;2022-08-01T04:06:13;3.22;;;1.45;;
11749;SDS011;5932;42.656;23.236;2022-08-01T04:08:40;1.75;;;1.60;;
11749;SDS011;5932;42.656;23.236;2022-08-01T04:14:28;1.50;;;1.40;;
11749;SDS011;5932;42.656;23.236;2022-08-01T04:16:55;1.40;;;1.20;;
11749;SDS011;5932;42.656;23.236;2022-08-01T04:19:22;2.55;;;1.50;;
11749;SDS011;5932;42.656;23.236;2022-08-01T04:21:48;1.45;;;1.35;;
11749;SDS011;5932;42.656;23.236;2022-08-01T04:24:16;3.67;;;1.60;;
11749;SDS011;5932;42.656;23.236;2022-08-01T04:26:45;1.83;;;1.48;;
11749;SDS011;5932;42.656;23.236;2022-08-01T04:29:13;3.20;;;1.58;;
11749;SDS011;5932;42.656;23.236;2022-08-01T04:31:45;2.30;;;1.42;;
11749;SDS011;5932;42.656;23.236;2022-08-01T04:34:15;2.22;;;1.60;;
11749;SDS011;5932;42.656;23.236;2022-08-01T04:36:48;3.20;;;1.42;;
11749;SDS011;5932;42.656;23.236;2022-08-01T04:39:16;1.60;;;1.50;;
11749;SDS011;5932;42.656;23.236;2022-08-01T04:41:45;1.50;;;1.40;;
11749;SDS011;5932;42.656;23.236;2022-08-01T04:44:12;3.63;;;1.77;;
11749;SDS011;5932;42.656;23.236;2022-08-01T04:46:40;4.60;;;1.40;;
11749;SDS011;5932;42.656;23.236;2022-08-01T04:49:08;2.15;;;1.55;;
11749;SDS011;5932;42.656;23.236;2022-08-01T04:51:37;2.15;;;1.70;;
11749;SDS011;5932;42.656;23.236;2022-08-01T04:54:16;2.60;;;1.50;;
11749;SDS011;5932;42.656;23.236;2022-08-01T04:56:42;2.58;;;1.60;;
11749;SDS011;5932;42.656;23.236;2022-08-01T04:59:09;1.98;;;1.60;;
11749;SDS011;5932;42.656;23.236;2022-08-01T05:01:53;2.15;;;1.60;;
11749;SDS011;5932;42.656;23.236;2022-08-01T05:04:21;2.78;;;1.70;;
11749;SDS011;5932;42.656;23.236;2022-08-01T05:06:48;1.80;;;1.50;;
11749;SDS011;5932;42.656;23.236;2022-08-01T05:09:15;3.90;;;1.60;;
11749;SDS011;5932;42.656;23.236;2022-08-01T05:11:42;1.58;;;1.48;;
11749;SDS011;5932;42.656;23.236;2022-08-01T05:14:09;3.38;;;1.60;;
11749;SDS011;5932;42.656;23.236;2022-08-01T05:16:36;2.22;;;1.63;;
11749;SDS011;5932;42.656;23.236;2022-08-01T05:19:02;3.60;;;1.95;;
11749;SDS011;5932;42.656;23.236;2022-08-01T05:21:30;1.95;;;1.63;;
11749;SDS011;5932;42.656;23.236;2022-08-01T05:23:57;3.83;;;1.60;;
11749;SDS011;5932;42.656;23.236;2022-08-01T05:26:24;2.78;;;1.70;;
11749;SDS011;5932;42.656;23.236;2022-08-01T05:28:51;2.08;;;1.52;;
11749;SDS011;5932;42.656;23.236;2022-08-01T05:31:18;3.47;;;1.55;;
11749;SDS011;5932;42.656;23.236;2022-08-01T05:33:45;4.82;;;1.70;;
11749;SDS011;5932;42.656;23.236;2022-08-01T05:36:11;1.73;;;1.60;;
11749;SDS011;5932;42.656;23.236;2022-08-01T05:38:39;1.73;;;1.63;;
11749;SDS011;5932;42.656;23.236;2022-08-01T05:41:06;1.70;;;1.60;;
11749;SDS011;5932;42.656;23.236;2022-08-01T05:43:33;2.45;;;1.77;;
11749;SDS011;5932;42.656;23.236;2022-08-01T05:46:00;4.03;;;1.85;;
11749;SDS011;5932;42.656;23.236;2022-08-01T05:48:27;2.60;;;1.50;;
11749;SDS011;5932;42.656;23.236;2022-08-01T05:50:53;5.28;;;1.70;;
11749;SDS011;5932;42.656;23.236;2022-08-01T05:53:21;4.47;;;1.90;;
11749;SDS011;5932;42.656;23.236;2022-08-01T05:55:49;2.45;;;1.92;;
11749;SDS011;5932;42.656;23.236;2022-08-01T05:58:15;7.10;;;1.73;;
11749;SDS011;5932;42.656;23.236;2022-08-01T06:00:42;4.50;;;1.60;;
11749;SDS011;5932;42.656;23.236;2022-08-01T06:03:09;1.70;;;1.60;;
11749;SDS011;5932;42.656;23.236;2022-08-01T06:05:36;2.08;;;1.60;;
11749;SDS011;5932;42.656;23.236;2022-08-01T06:08:03;1.60;;;1.50;;
11749;SDS011;5932;42.656;23.236;2022-08-01T06:10:30;1.85;;;1.38;;
11749;SDS011;5932;42.656;23.236;2022-08-01T06:12:58;1.50;;;1.40;;
11749;SDS011;5932;42.656;23.236;2022-08-01T06:15:28;4.65;;;1.48;;
11749;SDS011;5932;42.656;23.236;2022-08-01T06:17:54;2.88;;;1.60;;
11749;SDS011;5932;42.656;23.236;2022-08-01T06:20:21;1.98;;;1.45;;
11749;SDS011;5932;42.656;23.236;2022-08-01T06:22:48;1.85;;;1.20;;
11749;SDS011;5932;42.656;23.236;2022-08-01T06:25:16;5.00;;;1.70;;
11749;SDS011;5932;42.656;23.236;2022-08-01T06:27:43;1.98;;;1.50;;
11749;SDS011;5932;42.656;23.236;2022-08-01T06:30:12;5.30;;;1.55;;
11749;SDS011;5932;42.656;23.236;2022-08-01T06:32:39;1.65;;;1.40;;
11749;SDS011;5932;42.656;23.236;2022-08-01T06:35:07;2.50;;;1.45;;
11749;SDS011;5932;42.656;23.236;2022-08-01T06:37:34;2.40;;;1.50;;
11749;SDS011;5932;42.656;23.236;2022-08-01T06:40:01;2.08;;;1.63;;
11749;SDS011;5932;42.656;23.236;2022-08-01T06:42:28;1.75;;;1.45;;
11749;SDS011;5932;42.656;23.236;2022-08-01T06:44:56;1.95;;;1.52;;
11749;SDS011;5932;42.656;23.236;2022-08-01T06:47:25;4.07;;;1.70;;
11749;SDS011;5932;42.656;23.236;2022-08-01T06:49:51;3.15;;;1.60;;
11749;SDS011;5932;42.656;23.236;2022-08-01T06:52:18;3.15;;;1.60;;
11749;SDS011;5932;42.656;23.236;2022-08-01T06:54:45;3.38;;;1.70;;
11749;SDS011;5932;42.656;23.236;2022-08-01T06:57:12;2.38;;;1.50;;
11749;SDS011;5932;42.656;23.236;2022-08-01T06:59:39;2.15;;;1.63;;
11749;SDS011;5932;42.656;23.236;2022-08-01T07:02:06;1.67;;;1.50;;
11749;SDS011;5932;42.656;23.236;2022-08-01T07:04:34;2.00;;;1.73;;
11749;SDS011;5932;42.656;23.236;2022-08-01T07:07:01;3.83;;;1.73;;
11749;SDS011;5932;42.656;23.236;2022-08-01T07:09:28;3.17;;;1.65;;
11749;SDS011;5932;42.656;23.236;2022-08-01T07:11:55;2.83;;;1.90;;
11749;SDS011;5932;42.656;23.236;2022-08-01T07:14:22;2.75;;;1.80;;
11749;SDS011;5932;42.656;23.236;2022-08-01T07:16:50;2.00;;;1.80;;
11749;SDS011;5932;42.656;23.236;2022-08-01T07:19:17;6.07;;;2.17;;
11749;SDS011;5932;42.656;23.236;2022-08-01T07:21:45;1.90;;;1.70;;
11749;SDS011;5932;42.656;23.236;2022-08-01T07:24:13;2.67;;;1.80;;
11749;SDS011;5932;42.656;23.236;2022-08-01T07:26:40;2.13;;;1.60;;
11749;SDS011;5932;42.656;23.236;2022-08-01T07:29:08;3.92;;;1.73;;
11749;SDS011;5932;42.656;23.236;2022-08-01T07:31:35;3.65;;;2.25;;
11749;SDS011;5932;42.656;23.236;2022-08-01T07:34:02;3.10;;;1.70;;
11749;SDS011;5932;42.656;23.236;2022-08-01T07:36:29;1.90;;;1.80;;
11749;SDS011;5932;42.656;23.236;2022-08-01T07:38:57;2.33;;;1.60;;
11749;SDS011;5932;42.656;23.236;2022-08-01T07:41:24;2.28;;;1.80;;
11749;SDS011;5932;42.656;23.236;2022-08-01T07:43:51;1.95;;;1.73;;
11749;SDS011;5932;42.656;23.236;2022-08-01T07:46:17;3.30;;;1.98;;
11749;SDS011;5932;42.656;23.236;2022-08-01T07:48:44;1.85;;;1.70;;
11749;SDS011;5932;42.656;23.236;2022-08-01T07:51:13;1.85;;;1.58;;
11749;SDS011;5932;42.656;23.236;2022-08-01T07:53:40;2.47;;;1.60;;
11749;SDS011;5932;42.656;23.236;2022-08-01T07:56:08;2.75;;;1.70;;
11749;SDS011;5932;42.656;23.236;2022-08-01T07:58:35;1.95;;;1.50;;
11749;SDS011;5932;42.656;23.236;2022-08-01T08:01:02;4.15;;;1.70;;
11749;SDS011;5932;42.656;23.236;2022-08-01T08:03:29;3.28;;;1.70;;
11749;SDS011;5932;42.656;23.236;2022-08-01T08:05:56;4.97;;;1.83;;
11749;SDS011;5932;42.656;23.236;2022-08-01T08:08:22;1.85;;;1.70;;
11749;SDS011;5932;42.656;23.236;2022-08-01T08:10:49;3.88;;;1.70;;
11749;SDS011;5932;42.656;23.236;2022-08-01T08:13:17;2.00;;;1.77;;
11749;SDS011;5932;42.656;23.236;2022-08-01T08:15:44;1.70;;;1.60;;
11749;SDS011;5932;42.656;23.236;2022-08-01T08:18:11;4.10;;;2.00;;
11749;SDS011;5932;42.656;23.236;2022-08-01T08:20:38;1.80;;;1.67;;
11749;SDS011;5932;42.656;23.236;2022-08-01T08:23:04;1.70;;;1.60;;
11749;SDS011;5932;42.656;23.236;2022-08-01T08:25:51;3.03;;;1.80;;
11749;SDS011;5932;42.656;23.236;2022-08-01T08:28:19;2.42;;;1.70;;
11749;SDS011;5932;42.656;23.236;2022-08-01T08:30:46;2.13;;;1.55;;
11749;SDS011;5932;42.656;23.236;2022-08-01T08:33:13;1.95;;;1.70;;
11749;SDS011;5932;42.656;23.236;2022-08-01T08:35:40;2.22;;;1.80;;
11749;SDS011;5932;42.656;23.236;2022-08-01T08:38:06;1.95;;;1.63;;
11749;SDS011;5932;42.656;23.236;2022-08-01T08:40:34;2.80;;;1.77;;
11749;SDS011;5932;42.656;23.236;2022-08-01T08:43:03;1.58;;;1.48;;
11749;SDS011;5932;42.656;23.236;2022-08-01T08:45:33;2.20;;;1.58;;
11749;SDS011;5932;42.656;23.236;2022-08-01T08:48:00;3.55;;;1.52;;
11749;SDS011;5932;42.656;23.236;2022-08-01T08:50:28;1.83;;;1.70;;
11749;SDS011;5932;42.656;23.236;2022-08-01T08:52:55;1.70;;;1.60;;
11749;SDS011;5932;42.656;23.236;2022-08-01T08:55:22;1.98;;;1.52;;
11749;SDS011;5932;42.656;23.236;2022-08-01T08:57:49;1.60;;;1.50;;
11749;SDS011;5932;42.656;23.236;2022-08-01T09:00:17;2.05;;;1.60;;
11749;SDS011;5932;42.656;23.236;2022-08-01T09:02:46;4.10;;;1.70;;
11749;SDS011;5932;42.656;23.236;2022-08-01T09:05:15;4.18;;;1.70;;
11749;SDS011;5932;42.656;23.236;2022-08-01T09:07:42;1.88;;;1.50;;
11749;SDS011;5932;42.656;23.236;2022-08-01T09:10:09;2.08;;;1.90;;
11749;SDS011;5932;42.656;23.236;2022-08-01T09:12:36;2.65;;;1.65;;
11749;SDS011;5932;42.656;23.236;2022-08-01T09:15:03;2.45;;;1.73;;
11749;SDS011;5932;42.656;23.236;2022-08-01T09:17:38;1.80;;;1.60;;
11749;SDS011;5932;42.656;23.236;2022-08-01T09:20:08;1.92;;;1.60;;
11749;SDS011;5932;42.656;23.236;2022-08-01T09:22:49;1.88;;;1.70;;
11749;SDS011;5932;42.656;23.236;2022-08-01T09:25:15;2.22;;;1.60;;
11749;SDS011;5932;42.656;23.236;2022-08-01T09:27:42;1.88;;;1.50;;
11749;SDS011;5932;42.656;23.236;2022-08-01T09:30:10;2.22;;;1.60;;
11749;SDS011;5932;42.656;23.236;2022-08-01T09:32:52;1.88;;;1.50;;
11749;SDS011;5932;42.656;23.236;2022-08-01T09:35:24;2.35;;;1.77;;
11749;SDS011;5932;42.656;23.236;2022-08-01T09:37:56;1.58;;;1.48;;
11749;SDS011;5932;42.656;23.236;2022-08-01T09:40:49;2.63;;;1.80;;
11749;SDS011;5932;42.656;23.236;2022-08-01T09:43:18;2.58;;;1.83;;
11749;SDS011;5932;42.656;23.236;2022-08-01T09:45:45;3.53;;;2.00;;
11749;SDS011;5932;42.656;23.236;2022-08-01T09:48:12;2.00;;;1.73;;
11749;SDS011;5932;42.656;23.236;2022-08-01T09:50:43;2.80;;;2.00;;
11749;SDS011;5932;42.656;23.236;2022-08-01T09:53:11;2.50;;;1.98;;
11749;SDS011;5932;42.656;23.236;2022-08-01T09:55:39;2.72;;;1.63;;
11749;SDS011;5932;42.656;23.236;2022-08-01T09:58:07;2.45;;;2.10;;
11749;SDS011;5932;42.656;23.236;2022-08-01T10:00:35;2.92;;;2.20;;
11749;SDS011;5932;42.656;23.236;2022-08-01T10:03:17;3.75;;;1.73;;
11749;SDS011;5932;42.656;23.236;2022-08-01T10:05:47;3.70;;;1.80;;
11749;SDS011;5932;42.656;23.236;2022-08-01T10:08:15;2.45;;;1.83;;
11749;SDS011;5932;42.656;23.236;2022-08-01T10:10:42;2.75;;;1.90;;
11749;SDS011;5932;42.656;23.236;2022-08-01T10:13:30;3.72;;;1.70;;
11749;SDS011;5932;42.656;23.236;2022-08-01T10:15:57;2.42;;;1.80;;
11749;SDS011;5932;42.656;23.236;2022-08-01T10:18:24;5.18;;;1.85;;
11749;SDS011;5932;42.656;23.236;2022-08-01T10:20:52;2.40;;;1.77;;
11749;SDS011;5932;42.656;23.236;2022-08-01T10:23:20;2.15;;;1.80;;
11749;SDS011;5932;42.656;23.236;2022-08-01T10:25:48;1.60;;;1.50;;
11749;SDS011;5932;42.656;23.236;2022-08-01T10:28:16;1.88;;;1.50;;
11749;SDS011;5932;42.656;23.236;2022-08-01T10:30:46;1.83;;;1.58;;
11749;SDS011;5932;42.656;23.236;2022-08-01T10:33:14;2.00;;;1.63;;
11749;SDS011;5932;42.656;23.236;2022-08-01T10:35:41;1.58;;;1.48;;
11749;SDS011;5932;42.656;23.236;2022-08-01T10:38:13;3.42;;;1.70;;
11749;SDS011;5932;42.656;23.236;2022-08-01T10:40:41;1.40;;;1.30;;
11749;SDS011;5932;42.656;23.236;2022-08-01T10:43:09;1.73;;;1.63;;
11749;SDS011;5932;42.656;23.236;2022-08-01T10:45:36;1.50;;;1.40;;
11749;SDS011;5932;42.656;23.236;2022-08-01T10:48:04;1.95;;;1.52;;
11749;SDS011;5932;42.656;23.236;2022-08-01T10:50:46;2.13;;;1.50;;
11749;SDS011;5932;42.656;23.236;2022-08-01T10:53:16;2.08;;;1.52;;
11749;SDS011;5932;42.656;23.236;2022-08-01T10:55:45;1.80;;;1.67;;
11749;SDS011;5932;42.656;23.236;2022-08-01T10:58:12;2.85;;;1.70;;
11749;SDS011;5932;42.656;23.236;2022-08-01T11:00:39;2.65;;;1.55;;
11749;SDS011;5932;42.656;23.236;2022-08-01T11:03:06;1.75;;;1.60;;
11749;SDS011;5932;42.656;23.236;2022-08-01T11:05:33;2.15;;;1.48;;
11749;SDS011;5932;42.656;23.236;2022-08-01T11:08:06;1.75;;;1.50;;
11749;SDS011;5932;42.656;23.236;2022-08-01T11:10:38;1.60;;;1.50;;
11749;SDS011;5932;42.656;23.236;2022-08-01T11:13:08;2.08;;;1.45;;
11749;SDS011;5932;42.656;23.236;2022-08-01T11:15:36;3.35;;;1.70;;
11749;SDS011;5932;42.656;23.236;2022-08-01T11:18:04;2.35;;;1.60;;
11749;SDS011;5932;42.656;23.236;2022-08-01T11:20:58;1.83;;;1.40;;
11749;SDS011;5932;42.656;23.236;2022-08-01T11:23:26;2.28;;;1.70;;
11749;SDS011;5932;42.656;23.236;2022-08-01T11:26:08;2.60;;;1.60;;
11749;SDS011;5932;42.656;23.236;2022-08-01T11:28:36;1.92;;;1.70;;
11749;SDS011;5932;42.656;23.236;2022-08-01T11:33:54;1.63;;;1.52;;
11749;SDS011;5932;42.656;23.236;2022-08-01T11:36:21;4.68;;;1.70;;
11749;SDS011;5932;42.656;23.236;2022-08-01T11:38:49;2.20;;;1.52;;
11749;SDS011;5932;42.656;23.236;2022-08-01T11:41:33;2.97;;;1.70;;
11749;SDS011;5932;42.656;23.236;2022-08-01T11:44:01;3.90;;;1.70;;
11749;SDS011;5932;42.656;23.236;2022-08-01T11:49:24;2.90;;;1.50;;
11749;SDS011;5932;42.656;23.236;2022-08-01T11:52:11;1.98;;;1.63;;
11749;SDS011;5932;42.656;23.236;2022-08-01T11:54:39;4.80;;;1.90;;
11749;SDS011;5932;42.656;23.236;2022-08-01T11:57:10;1.90;;;1.80;;
11749;SDS011;5932;42.656;23.236;2022-08-01T11:59:39;2.08;;;1.80;;
11749;SDS011;5932;42.656;23.236;2022-08-01T12:02:18;1.70;;;1.60;;
11749;SDS011;5932;42.656;23.236;2022-08-01T12:04:46;2.08;;;1.80;;
11749;SDS011;5932;42.656;23.236;2022-08-01T12:07:14;4.00;;;1.42;;
11749;SDS011;5932;42.656;23.236;2022-08-01T12:09:42;1.70;;;1.60;;
11749;SDS011;5932;42.656;23.236;2022-08-01T12:12:10;2.13;;;1.60;;
11749;SDS011;5932;42.656;23.236;2022-08-01T12:14:42;2.17;;;1.77;;
11749;SDS011;5932;42.656;23.236;2022-08-01T12:17:09;3.47;;;1.67;;
11749;SDS011;5932;42.656;23.236;2022-08-01T12:19:35;1.85;;;1.60;;
11749;SDS011;5932;42.656;23.236;2022-08-01T12:22:04;1.80;;;1.70;;
11749;SDS011;5932;42.656;23.236;2022-08-01T12:24:32;1.92;;;1.67;;
11749;SDS011;5932;42.656;23.236;2022-08-01T12:26:59;3.60;;;1.70;;
11749;SDS011;5932;42.656;23.236;2022-08-01T12:29:36;1.77;;;1.67;;
11749;SDS011;5932;42.656;23.236;2022-08-01T12:32:13;2.05;;;1.80;;
11749;SDS011;5932;42.656;23.236;2022-08-01T12:34:48;2.08;;;1.75;;
11749;SDS011;5932;42.656;23.236;2022-08-01T12:37:15;3.08;;;1.80;;
11749;SDS011;5932;42.656;23.236;2022-08-01T12:39:42;1.70;;;1.60;;
11749;SDS011;5932;42.656;23.236;2022-08-01T12:42:09;2.78;;;1.73;;
11749;SDS011;5932;42.656;23.236;2022-08-01T12:44:39;1.83;;;1.70;;
11749;SDS011;5932;42.656;23.236;2022-08-01T12:47:08;1.98;;;1.75;;
11749;SDS011;5932;42.656;23.236;2022-08-01T12:49:35;2.92;;;1.67;;
11749;SDS011;5932;42.656;23.236;2022-08-01T12:52:03;2.42;;;1.75;;
11749;SDS011;5932;42.656;23.236;2022-08-01T12:57:44;1.63;;;1.52;;
11749;SDS011;5932;42.656;23.236;2022-08-01T13:00:20;1.90;;;1.80;;
11749;SDS011;5932;42.656;23.236;2022-08-01T13:02:49;3.70;;;1.60;;
11749;SDS011;5932;42.656;23.236;2022-08-01T13:05:26;1.58;;;1.40;;
11749;SDS011;5932;42.656;23.236;2022-08-01T13:07:53;1.95;;;1.52;;
11749;SDS011;5932;42.656;23.236;2022-08-01T13:10:26;1.90;;;1.65;;
11749;SDS011;5932;42.656;23.236;2022-08-01T13:12:55;1.70;;;1.60;;
11749;SDS011;5932;42.656;23.236;2022-08-01T13:15:29;2.47;;;1.50;;
11749;SDS011;5932;42.656;23.236;2022-08-01T13:17:58;1.67;;;1.58;;
11749;SDS011;5932;42.656;23.236;2022-08-01T13:20:26;1.60;;;1.50;;
11749;SDS011;5932;42.656;23.236;2022-08-01T13:23:09;2.08;;;1.65;;
11749;SDS011;5932;42.656;23.236;2022-08-01T13:25:46;2.17;;;1.75;;
11749;SDS011;5932;42.656;23.236;2022-08-01T13:28:17;2.10;;;1.60;;
11749;SDS011;5932;42.656;23.236;2022-08-01T13:30:54;1.70;;;1.60;;
11749;SDS011;5932;42.656;23.236;2022-08-01T13:33:23;1.75;;;1.55;;
11749;SDS011;5932;42.656;23.236;2022-08-01T13:35:51;1.75;;;1.42;;
11749;SDS011;5932;42.656;23.236;2022-08-01T13:38:18;1.58;;;1.48;;
11749;SDS011;5932;42.656;23.236;2022-08-01T13:41:05;2.50;;;1.77;;
11749;SDS011;5932;42.656;23.236;2022-08-01T13:43:33;2.17;;;1.40;;
11749;SDS011;5932;42.656;23.236;2022-08-01T13:46:02;1.50;;;1.40;;
11749;SDS011;5932;42.656;23.236;2022-08-01T13:48:29;2.00;;;1.70;;
11749;SDS011;5932;42.656;23.236;2022-08-01T13:50:57;2.10;;;1.50;;
11749;SDS011;5932;42.656;23.236;2022-08-01T13:53:24;2.45;;;1.70;;
11749;SDS011;5932;42.656;23.236;2022-08-01T13:55:51;2.13;;;1.70;;
11749;SDS011;5932;42.656;23.236;2022-08-01T13:58:18;2.60;;;1.52;;
11749;SDS011;5932;42.656;23.236;2022-08-01T14:00:44;1.55;;;1.45;;
11749;SDS011;5932;42.656;23.236;2022-08-01T14:03:13;1.63;;;1.50;;
11749;SDS011;5932;42.656;23.236;2022-08-01T14:05:41;1.50;;;1.40;;
11749;SDS011;5932;42.656;23.236;2022-08-01T14:08:08;1.65;;;1.55;;
11749;SDS011;5932;42.656;23.236;2022-08-01T14:10:35;3.17;;;1.58;;
11749;SDS011;5932;42.656;23.236;2022-08-01T14:13:05;1.70;;;1.60;;
11749;SDS011;5932;42.656;23.236;2022-08-01T14:15:32;1.75;;;1.65;;
11749;SDS011;5932;42.656;23.236;2022-08-01T14:17:59;2.83;;;1.60;;
11749;SDS011;5932;42.656;23.236;2022-08-01T14:20:27;3.30;;;1.60;;
11749;SDS011;5932;42.656;23.236;2022-08-01T14:22:54;2.15;;;1.65;;
11749;SDS011;5932;42.656;23.236;2022-08-01T14:25:21;2.58;;;1.70;;
11749;SDS011;5932;42.656;23.236;2022-08-01T14:27:47;2.45;;;1.45;;
11749;SDS011;5932;42.656;23.236;2022-08-01T14:30:14;9.00;;;1.83;;
11749;SDS011;5932;42.656;23.236;2022-08-01T14:32:41;1.70;;;1.60;;
11749;SDS011;5932;42.656;23.236;2022-08-01T14:35:08;1.58;;;1.48;;
11749;SDS011;5932;42.656;23.236;2022-08-01T14:37:36;1.98;;;1.42;;
11749;SDS011;5932;42.656;23.236;2022-08-01T14:40:04;1.70;;;1.60;;
11749;SDS011;5932;42.656;23.236;2022-08-01T14:42:34;1.70;;;1.48;;
11749;SDS011;5932;42.656;23.236;2022-08-01T14:45:02;2.22;;;1.55;;
11749;SDS011;5932;42.656;23.236;2022-08-01T14:47:33;1.60;;;1.50;;
11749;SDS011;5932;42.656;23.236;2022-08-01T14:50:00;1.60;;;1.50;;
11749;SDS011;5932;42.656;23.236;2022-08-01T14:52:27;3.17;;;1.30;;
11749;SDS011;5932;42.656;23.236;2022-08-01T14:54:55;1.63;;;1.52;;
11749;SDS011;5932;42.656;23.236;2022-08-01T14:57:22;2.38;;;1.50;;
11749;SDS011;5932;42.656;23.236;2022-08-01T14:59:49;4.28;;;1.42;;
11749;SDS011;5932;42.656;23.236;2022-08-01T15:02:15;2.67;;;1.63;;
11749;SDS011;5932;42.656;23.236;2022-08-01T15:04:43;4.55;;;1.50;;
11749;SDS011;5932;42.656;23.236;2022-08-01T15:07:10;1.67;;;1.27;;
11749;SDS011;5932;42.656;23.236;2022-08-01T15:09:37;1.50;;;1.40;;
11749;SDS011;5932;42.656;23.236;2022-08-01T15:12:06;5.05;;;1.30;;